Time;durP1;ratioP1;P1;durP2;ratioP2;P2;SDS_P1;SDS_P2;PMS_P1;PMS_P2;Temp;Humidity;BMP_temperature;BMP_pressure;BME280_temperature;BME280_humidity;BME280_pressure;Samples;Min_cycle;Max_cycle;Signal;HPM_P1;HPM_P2
2022/10/06 00:04:23;;;;;;;1.45;0.52;;;;;;;13.17;87.95;101565.31;10284384;28;20051;-81
2022/10/06 00:09:24;;;;;;;3.80;0.80;;;;;;;13.23;87.61;101573.31;10292260;28;20051;-81
2022/10/06 00:14:26;;;;;;;2.83;0.45;;;;;;;13.20;87.60;101578.53;10286859;28;20078;-81
2022/10/06 00:19:28;;;;;;;2.25;0.50;;;;;;;13.21;87.00;101585.56;10296394;28;20053;-81
2022/10/06 00:24:30;;;;;;;3.47;0.73;;;;;;;13.26;86.88;101585.66;10294369;28;20086;-80
2022/10/06 00:29:32;;;;;;;6.75;0.73;;;;;;;13.21;86.78;101582.03;10278716;28;20057;-81
2022/10/06 00:34:36;;;;;;;1.92;0.55;;;;;;;13.20;86.39;101593.44;10270696;28;20078;-82
2022/10/06 00:39:37;;;;;;;4.07;0.50;;;;;;;13.19;86.10;101603.03;10298856;28;20054;-82
2022/10/06 00:44:39;;;;;;;1.20;0.30;;;;;;;13.17;86.02;101604.78;10296675;28;20138;-82
2022/10/06 00:49:43;;;;;;;0.43;0.30;;;;;;;13.02;85.89;101607.97;10282896;28;20570;-82
2022/10/06 00:54:45;;;;;;;6.93;0.77;;;;;;;12.93;85.87;101627.94;10295048;28;20051;-81
2022/10/06 00:59:50;;;;;;;1.90;0.38;;;;;;;12.91;85.86;101633.19;10257735;28;20138;-81
2022/10/06 01:05:08;;;;;;;8.07;0.90;;;;;;;12.86;85.72;101643.56;10228366;28;20142;-82
2022/10/06 01:10:10;;;;;;;4.53;0.73;;;;;;;12.81;85.52;101642.59;10268013;28;20103;-82
2022/10/06 01:15:12;;;;;;;4.38;0.63;;;;;;;12.70;85.60;101659.84;10280144;28;20062;-81
2022/10/06 01:20:22;;;;;;;7.20;0.70;;;;;;;12.63;85.65;101663.22;10295087;28;20077;-81
2022/10/06 01:25:24;;;;;;;;;;;;;;;12.57;85.93;101674.47;10274356;28;20066;-81
2022/10/06 01:30:31;;;;;;;1.85;0.60;;;;;;;12.49;86.19;101678.63;10287130;28;19952;-82
2022/10/06 01:35:33;;;;;;;5.35;0.80;;;;;;;12.48;86.27;101705.78;10307663;28;20055;-82
2022/10/06 01:40:34;;;;;;;2.92;0.82;;;;;;;12.51;86.28;101705.84;10301234;28;20050;-82
2022/10/06 01:45:37;;;;;;;3.38;0.80;;;;;;;12.42;86.60;101716.16;10262749;28;20177;-82
2022/10/06 01:50:40;;;;;;;4.68;0.60;;;;;;;12.41;86.56;101717.00;10289398;28;20130;-82
2022/10/06 01:55:42;;;;;;;5.65;0.68;;;;;;;12.31;86.62;101718.47;10284268;28;20059;-82
2022/10/06 02:00:50;;;;;;;3.03;0.70;;;;;;;12.29;86.61;101725.44;10264427;28;20051;-82
2022/10/06 02:05:55;;;;;;;2.08;0.80;;;;;;;12.23;86.77;101730.53;10267059;28;20062;-82
2022/10/06 02:11:08;;;;;;;8.32;0.98;;;;;;;12.23;86.80;101746.31;10261774;28;20051;-82
2022/10/06 02:16:14;;;;;;;5.63;0.98;;;;;;;12.22;86.92;101747.13;10269919;28;20079;-82
2022/10/06 02:21:19;;;;;;;3.15;0.60;;;;;;;12.18;86.93;101759.31;10288083;28;20074;-82
2022/10/06 02:26:21;;;;;;;6.60;1.17;;;;;;;12.09;86.84;101765.22;10274874;28;20058;-82
2022/10/06 02:31:24;;;;;;;2.58;0.65;;;;;;;12.06;87.03;101775.63;10273877;28;20150;-82
2022/10/06 02:36:26;;;;;;;3.05;0.60;;;;;;;12.01;87.05;101786.00;10290379;28;20163;-82
2022/10/06 02:41:29;;;;;;;7.72;1.05;;;;;;;12.04;86.87;101808.84;10276234;28;20134;-82
2022/10/06 02:46:32;;;;;;;5.80;0.70;;;;;;;12.01;86.81;101808.75;10283886;28;20063;-82
2022/10/06 02:51:34;;;;;;;8.80;0.77;;;;;;;12.02;86.75;101815.75;10273350;28;20054;-82
2022/10/06 02:56:38;;;;;;;9.20;0.80;;;;;;;12.06;86.51;101845.63;10264097;28;20077;-82
2022/10/06 03:01:42;;;;;;;7.13;1.10;;;;;;;11.99;86.21;101852.44;10278140;28;20047;-80
2022/10/06 03:06:49;;;;;;;9.13;1.40;;;;;;;11.91;86.05;101861.81;10261637;28;20082;-79
2022/10/06 03:11:53;;;;;;;3.90;1.10;;;;;;;11.91;86.08;101864.44;10281245;28;20070;-79
2022/10/06 03:17:16;;;;;;;6.53;1.38;;;;;;;11.85;85.86;101880.88;10282214;28;20150;-79
2022/10/06 03:22:24;;;;;;;6.75;1.10;;;;;;;11.91;85.45;101890.66;10267982;28;20059;-79
2022/10/06 03:27:36;;;;;;;9.10;1.02;;;;;;;11.87;85.05;101901.91;10274205;28;20054;-81
2022/10/06 03:32:39;;;;;;;3.42;0.82;;;;;;;11.79;84.67;101905.19;10254594;28;20048;-82
2022/10/06 03:37:44;;;;;;;6.45;1.15;;;;;;;11.76;84.41;101912.97;10284609;28;20066;-82
2022/10/06 03:42:53;;;;;;;13.80;1.60;;;;;;;11.65;84.10;101919.66;10257869;28;20051;-82
2022/10/06 03:48:02;;;;;;;10.05;1.30;;;;;;;11.66;83.86;101934.53;10261848;28;20142;-81
2022/10/06 03:53:05;;;;;;;12.10;2.13;;;;;;;11.60;83.75;101942.22;10271729;28;20063;-82
2022/10/06 03:58:07;;;;;;;8.60;1.17;;;;;;;11.61;83.35;101950.13;10262187;28;20138;-81
2022/10/06 04:03:12;;;;;;;5.13;0.85;;;;;;;11.59;83.03;101956.16;10253037;28;20053;-82
2022/10/06 04:08:14;;;;;;;8.02;0.90;;;;;;;11.53;82.95;101961.22;10256130;28;20085;-82
2022/10/06 04:13:17;;;;;;;5.63;0.88;;;;;;;11.44;82.81;101972.28;10259371;28;20235;-82
2022/10/06 04:18:19;;;;;;;10.65;1.73;;;;;;;11.43;82.83;101981.91;10259502;28;20656;-82
2022/10/06 04:23:21;;;;;;;7.15;0.88;;;;;;;11.45;82.80;101989.81;10287207;28;20530;-81
2022/10/06 04:28:23;;;;;;;5.85;1.73;;;;;;;11.42;82.87;102003.72;10267850;28;20394;-81
2022/10/06 04:33:26;;;;;;;5.40;1.00;;;;;;;11.31;82.97;102008.59;10286735;28;20477;-81
2022/10/06 04:38:34;;;;;;;5.13;0.88;;;;;;;11.23;83.10;102020.59;10268056;28;20060;-82
2022/10/06 04:43:53;;;;;;;12.35;1.38;;;;;;;11.21;83.36;102017.00;10277513;28;20349;-82
2022/10/06 04:49:06;;;;;;;3.97;1.08;;;;;;;11.21;83.46;102026.59;10270879;28;20061;-82
2022/10/06 04:54:09;;;;;;;6.38;1.00;;;;;;;11.17;83.47;102029.94;10265111;28;20074;-81
2022/10/06 04:59:14;;;;;;;10.88;2.30;;;;;;;11.11;83.56;102051.63;10271200;28;20046;-82
2022/10/06 05:04:20;;;;;;;7.38;1.20;;;;;;;11.08;83.40;102052.41;10285760;28;20043;-82
2022/10/06 05:09:21;;;;;;;6.18;1.35;;;;;;;11.11;83.44;102068.25;10283403;28;20078;-81
2022/10/06 05:14:28;;;;;;;8.50;1.92;;;;;;;11.01;83.41;102081.84;10282284;28;20885;-81
2022/10/06 05:19:30;;;;;;;10.23;1.40;;;;;;;10.93;83.61;102083.31;10256760;28;20053;-81
2022/10/06 05:24:31;;;;;;;3.45;1.08;;;;;;;10.93;83.67;102101.66;10261822;28;20062;-81
2022/10/06 05:29:34;;;;;;;8.20;1.48;;;;;;;10.85;83.54;102109.22;10255180;28;20047;-82
2022/10/06 05:34:37;;;;;;;8.40;0.90;;;;;;;10.86;83.96;102124.09;10236896;28;20039;-81
2022/10/06 05:39:40;;;;;;;4.38;1.20;;;;;;;10.84;83.71;102132.75;10252644;28;20529;-81
2022/10/06 05:44:42;;;;;;;8.18;1.35;;;;;;;10.79;84.09;102146.59;10243738;28;20331;-82
2022/10/06 05:49:46;;;;;;;5.25;1.10;;;;;;;10.84;83.94;102162.47;10256310;28;20047;-82
2022/10/06 05:54:48;;;;;;;8.10;1.10;;;;;;;10.83;83.70;102160.69;10282966;28;20470;-80
2022/10/06 05:59:49;;;;;;;9.98;1.58;;;;;;;10.80;83.62;102176.28;10217209;28;20408;-82
2022/10/06 06:05:00;;;;;;;5.55;1.05;;;;;;;10.82;83.66;102178.97;10256446;28;20114;-82
2022/10/06 06:10:08;;;;;;;6.90;1.20;;;;;;;10.82;83.40;102184.19;10228135;28;20047;-82
2022/10/06 06:26:10;;;;;;;14.05;1.10;;;;;;;10.89;83.10;102218.56;10265409;28;20058;-82
2022/10/06 06:31:20;;;;;;;14.53;1.43;;;;;;;10.95;82.96;102228.38;10268241;28;20055;-82
2022/10/06 06:36:34;;;;;;;3.58;0.88;;;;;;;10.98;82.95;102233.75;10275972;28;20378;-81
2022/10/06 06:41:57;;;;;;;6.55;1.00;;;;;;;11.08;82.84;102245.47;10265704;28;20043;-82
2022/10/06 06:47:26;;;;;;;7.05;1.13;;;;;;;11.14;82.44;102251.84;10230671;28;20435;-82
2022/10/06 06:52:37;;;;;;;5.50;1.08;;;;;;;11.26;82.34;102264.53;10250559;28;20048;-81
2022/10/06 06:57:53;;;;;;;6.25;1.50;;;;;;;11.28;82.21;102267.22;10245702;28;20137;-82
2022/10/06 07:03:04;;;;;;;5.85;1.15;;;;;;;11.43;82.04;102280.00;10244105;28;20090;-82
2022/10/06 07:08:09;;;;;;;5.90;0.95;;;;;;;11.50;81.88;102290.78;10238536;28;20142;-81
2022/10/06 07:13:14;;;;;;;10.70;1.35;;;;;;;11.62;81.73;102294.69;10258316;28;20158;-82
2022/10/06 07:29:00;;;;;;;13.55;1.15;;;;;;;19.25;69.48;102336.63;10237954;28;20531;-81
2022/10/06 07:34:03;;;;;;;5.35;0.75;;;;;;;20.06;63.63;102359.13;10274169;28;20510;-82
2022/10/06 07:39:05;;;;;;;9.10;1.23;;;;;;;-147.53;100.00;57128.34;10265796;28;20514;-80
2022/10/06 07:44:07;;;;;;;8.15;1.20;;;;;;;20.06;63.63;102359.13;10263820;28;20050;-81
2022/10/06 07:49:10;;;;;;;8.23;1.27;;;;;;;20.57;56.98;102383.16;10239570;28;20537;-81
2022/10/06 07:54:12;;;;;;;6.75;0.93;;;;;;;19.33;57.20;102391.56;10242930;28;20652;-80
2022/10/06 07:59:34;;;;;;;;;;;;;;;16.99;59.87;102392.44;10262686;28;20055;-80
2022/10/06 08:04:36;;;;;;;8.02;1.05;;;;;;;15.82;62.29;102404.34;10244401;28;19964;-79
2022/10/06 08:09:37;;;;;;;7.80;1.30;;;;;;;15.64;64.53;102405.72;10261847;28;20062;-79
2022/10/06 08:14:39;;;;;;;10.02;1.15;;;;;;;15.73;65.13;102427.03;10258920;28;20092;-79
2022/10/06 08:19:41;;;;;;;9.05;1.52;;;;;;;15.94;65.61;102415.16;10254806;28;20069;-80
2022/10/06 08:24:42;;;;;;;8.32;1.20;;;;;;;16.13;65.77;102426.13;10235145;28;20051;-80
2022/10/06 08:30:05;;;;;;;6.57;1.23;;;;;;;15.91;65.52;102441.50;10262992;28;20724;-79
2022/10/06 08:35:07;;;;;;;12.40;1.60;;;;;;;15.90;66.00;102450.31;10238517;28;20050;-79
2022/10/06 08:40:13;;;;;;;6.72;1.25;;;;;;;16.17;65.81;102463.22;10259633;28;20054;-80
2022/10/06 08:45:39;;;;;;;9.00;1.45;;;;;;;16.21;65.43;102469.44;10249340;28;20221;-78
2022/10/06 08:50:59;;;;;;;8.10;1.15;;;;;;;15.99;65.61;102474.28;10220874;28;20047;-79
2022/10/06 08:56:22;;;;;;;9.63;1.33;;;;;;;16.58;65.45;102473.69;10241966;28;20054;-79
2022/10/06 09:01:46;;;;;;;8.18;1.23;;;;;;;16.75;64.74;102486.34;10249244;28;20110;-79
2022/10/06 09:06:54;;;;;;;11.07;2.78;;;;;;;16.53;64.26;102492.97;10291851;28;20061;-80
2022/10/06 09:12:29;;;;;;;6.80;1.00;;;;;;;16.74;64.33;102509.28;10257112;28;20628;-80
2022/10/06 09:17:39;;;;;;;11.50;1.90;;;;;;;16.78;64.13;102515.50;10278645;28;20055;-78
2022/10/06 09:22:43;;;;;;;14.07;1.40;;;;;;;16.71;64.25;102525.09;10251477;28;20046;-77
2022/10/06 09:27:51;;;;;;;7.53;1.42;;;;;;;17.12;63.71;102529.41;10267492;28;20558;-78
2022/10/06 09:32:58;;;;;;;6.63;1.08;;;;;;;17.23;63.42;102538.41;10272545;28;20058;-78
2022/10/06 09:38:03;;;;;;;7.65;1.45;;;;;;;17.01;63.75;102539.78;10286915;28;20051;-79
2022/10/06 09:43:30;;;;;;;13.48;1.70;;;;;;;17.14;62.91;102539.16;10285265;28;20051;-82
2022/10/06 09:48:38;;;;;;;9.27;1.13;;;;;;;17.09;62.70;102546.09;10295833;28;20047;-82
2022/10/06 09:54:09;;;;;;;5.97;1.30;;;;;;;17.07;62.67;102553.13;10272177;28;20586;-82
2022/10/06 10:06:52;;;;;;;8.90;1.17;;;;;;;17.55;61.54;102548.66;10221841;28;20045;-81
2022/10/06 10:12:44;;;;;;;5.18;0.90;;;;;;;17.88;60.75;102570.34;10276208;28;20066;-80
2022/10/06 10:30:39;;;;;;;;;;;;;;;16.02;60.53;102582.69;11175659;23;20065;-91
2022/10/06 10:37:28;;;;;;;4.78;1.05;;;;;;;16.77;61.13;102586.03;10287602;28;20298;-92
2022/10/06 10:44:24;;;;;;;5.45;0.90;;;;;;;17.22;59.75;102592.22;10136659;29;20067;-92
2022/10/06 11:17:03;;;;;;;5.90;0.77;;;;;;;17.08;58.51;102621.09;10365903;23;20288;-83
2022/10/06 11:22:19;;;;;;;5.80;1.25;;;;;;;17.15;57.71;102614.16;10127100;29;20052;-84
2022/10/06 11:27:35;;;;;;;4.93;0.90;;;;;;;17.09;57.63;102608.75;10127859;29;20054;-84
2022/10/06 11:32:36;;;;;;;5.93;0.90;;;;;;;16.97;56.90;102619.97;10131309;29;20049;-82
2022/10/06 11:37:48;;;;;;;9.73;1.75;;;;;;;17.20;56.54;102617.75;10159152;29;20084;-83
2022/10/06 11:43:16;;;;;;;6.10;1.10;;;;;;;16.74;56.59;102617.72;10156689;29;20428;-82
2022/10/06 11:48:25;;;;;;;4.05;0.80;;;;;;;16.25;57.49;102625.47;10155818;29;20048;-84
2022/10/06 11:53:33;;;;;;;7.07;1.03;;;;;;;16.72;57.62;102619.47;10164378;29;20083;-85
2022/10/06 11:58:50;;;;;;;8.88;1.10;;;;;;;17.37;57.23;102614.53;10172114;29;20079;-82
2022/10/06 12:04:07;;;;;;;7.13;0.88;;;;;;;17.46;55.74;102628.84;10145666;29;20071;-83
2022/10/06 12:09:24;;;;;;;7.53;0.95;;;;;;;17.25;56.15;102618.75;10170243;29;20508;-84
2022/10/06 12:14:32;;;;;;;5.82;1.05;;;;;;;16.84;56.20;102620.56;10170125;29;20084;-83
2022/10/06 12:20:00;;;;;;;6.32;0.95;;;;;;;17.16;56.21;102615.94;10164367;29;20060;-83
2022/10/06 12:25:04;;;;;;;3.25;0.95;;;;;;;17.16;55.81;102612.38;10158253;29;20052;-82
2022/10/06 12:30:18;;;;;;;5.15;0.80;;;;;;;17.04;56.14;102616.59;10133057;29;20063;-83
2022/10/06 12:35:29;;;;;;;3.38;0.50;;;;;;;17.25;55.66;102617.84;10136425;29;20048;-83
2022/10/06 12:40:50;;;;;;;4.53;1.13;;;;;;;17.16;55.28;102613.28;10148111;29;20064;-82
2022/10/06 12:45:58;;;;;;;4.57;0.77;;;;;;;16.98;55.09;102616.47;10137330;29;20052;-83
2022/10/06 12:51:05;;;;;;;8.38;1.30;;;;;;;17.20;55.39;102612.47;10144277;29;20056;-83
2022/10/06 12:56:27;;;;;;;5.40;0.93;;;;;;;17.00;55.41;102601.50;10182599;29;20051;-82
2022/10/06 13:01:28;;;;;;;2.05;0.70;;;;;;;16.95;55.07;102612.00;10174589;29;20048;-83
2022/10/06 13:06:30;;;;;;;8.00;0.82;;;;;;;16.90;54.97;102608.41;10153208;29;20048;-83
2022/10/06 13:11:32;;;;;;;6.07;1.15;;;;;;;16.89;55.85;102611.88;10171968;29;20076;-82
2022/10/06 13:16:39;;;;;;;14.05;1.05;;;;;;;16.84;55.54;102612.63;10191422;29;20076;-82
2022/10/06 13:21:41;;;;;;;9.90;1.88;;;;;;;17.13;55.55;102606.19;10182753;29;20058;-81
2022/10/06 13:26:44;;;;;;;4.70;1.35;;;;;;;16.98;55.61;102605.91;10172811;29;20654;-82
2022/10/06 13:31:49;;;;;;;3.83;0.85;;;;;;;17.09;55.53;102604.31;10199536;29;20055;-83
2022/10/06 13:36:58;;;;;;;5.30;0.68;;;;;;;17.04;54.75;102606.00;10201472;29;20767;-85
2022/10/06 13:42:10;;;;;;;3.10;0.90;;;;;;;17.00;55.41;102605.94;10176029;29;20054;-85
2022/10/06 13:47:21;;;;;;;5.18;0.70;;;;;;;17.04;55.39;102610.38;10170212;29;20082;-86
2022/10/06 13:52:34;;;;;;;2.97;0.77;;;;;;;17.01;55.43;102620.91;10178706;29;20852;-83
2022/10/06 13:58:08;;;;;;;4.25;0.80;;;;;;;16.85;54.77;102614.41;10186129;29;20048;-79
2022/10/06 14:03:19;;;;;;;6.65;1.20;;;;;;;16.62;54.92;102612.19;10183096;29;20423;-86
2022/10/06 14:08:26;;;;;;;4.10;0.95;;;;;;;16.55;55.53;102616.44;10137297;29;20640;-83
2022/10/06 14:13:30;;;;;;;3.92;1.00;;;;;;;16.49;54.94;102610.13;10145704;29;20044;-82
2022/10/06 14:18:57;;;;;;;6.03;0.68;;;;;;;16.43;55.18;102617.06;10172974;29;20186;-82
2022/10/06 14:24:01;;;;;;;8.32;0.95;;;;;;;16.29;55.09;102623.81;10143933;29;20044;-85
2022/10/06 14:29:13;;;;;;;5.75;0.93;;;;;;;16.29;55.77;102617.59;10159157;29;20111;-85
2022/10/06 14:34:17;;;;;;;8.70;0.88;;;;;;;16.22;55.43;102629.81;10183470;29;20137;-83
2022/10/06 14:39:18;;;;;;;6.10;0.90;;;;;;;16.16;55.80;102629.66;10175720;29;20063;-84
2022/10/06 14:44:20;;;;;;;7.32;1.10;;;;;;;16.18;56.00;102627.94;10178814;29;20047;-84
2022/10/06 14:49:24;;;;;;;3.88;0.77;;;;;;;16.13;56.30;102632.25;10155737;29;20055;-80
2022/10/06 14:54:26;;;;;;;5.43;1.10;;;;;;;16.21;56.28;102630.66;10157719;29;20045;-84
2022/10/06 14:59:27;;;;;;;4.22;0.73;;;;;;;16.26;56.31;102626.38;10189929;29;20047;-84
2022/10/06 15:04:30;;;;;;;3.70;0.80;;;;;;;16.24;56.28;102618.41;10192487;29;20070;-82
2022/10/06 15:09:34;;;;;;;3.30;0.90;;;;;;;16.18;56.06;102614.72;10147505;29;20088;-81
2022/10/06 15:14:38;;;;;;;4.70;0.73;;;;;;;16.11;55.95;102612.78;10136794;29;20059;-80
2022/10/06 15:19:41;;;;;;;4.55;0.60;;;;;;;16.05;56.15;102606.53;10153514;29;20100;-81
2022/10/06 15:24:47;;;;;;;7.47;1.63;;;;;;;16.00;56.18;102621.38;10203418;29;20052;-81
2022/10/06 15:29:49;;;;;;;7.57;0.90;;;;;;;15.84;56.16;102613.94;10206407;29;20048;-81
2022/10/06 15:34:51;;;;;;;4.20;0.80;;;;;;;15.73;56.30;102622.47;10194816;29;20070;-81
2022/10/06 15:39:52;;;;;;;4.72;1.23;;;;;;;15.61;56.66;102626.53;10199683;29;20048;-80
2022/10/06 15:44:54;;;;;;;4.68;0.77;;;;;;;15.58;56.95;102624.69;10203176;29;20044;-81
2022/10/06 15:49:56;;;;;;;7.10;1.13;;;;;;;15.45;57.35;102631.41;10202183;29;20079;-81
2022/10/06 15:54:58;;;;;;;3.67;1.00;;;;;;;15.25;58.07;102619.44;10186608;29;20048;-80
2022/10/06 16:00:00;;;;;;;2.47;0.55;;;;;;;15.15;58.45;102631.50;10186337;29;20469;-80
2022/10/06 16:10:03;;;;;;;5.70;1.30;;;;;;;14.95;59.67;102631.84;10199568;29;20064;-79
2022/10/06 16:15:05;;;;;;;4.95;1.20;;;;;;;14.83;60.07;102639.38;10164506;29;1060754;-79
2022/10/06 16:20:08;;;;;;;3.05;1.00;;;;;;;14.69;60.58;102638.97;10196224;29;20067;-79
2022/10/06 16:25:10;;;;;;;4.22;0.98;;;;;;;14.63;60.80;102637.03;10180384;29;20056;-79
2022/10/06 16:30:12;;;;;;;6.53;1.25;;;;;;;14.43;61.46;102633.78;10205795;29;20056;-79
2022/10/06 16:35:14;;;;;;;7.57;1.20;;;;;;;14.35;62.16;102631.75;10200293;29;20048;-81
2022/10/06 16:40:21;;;;;;;4.32;0.90;;;;;;;14.12;62.71;102638.06;10180571;29;20086;-81
2022/10/06 16:45:24;;;;;;;4.75;1.10;;;;;;;14.03;63.01;102647.44;10202172;29;20079;-81
2022/10/06 16:50:26;;;;;;;4.25;1.17;;;;;;;13.86;63.46;102644.25;10189493;29;20083;-80
2022/10/06 16:55:27;;;;;;;6.93;1.23;;;;;;;13.75;63.91;102651.78;10189671;29;21276;-82
2022/10/06 17:00:30;;;;;;;3.88;1.10;;;;;;;13.52;64.55;102654.53;10181068;29;20053;-82
2022/10/06 17:05:35;;;;;;;12.35;1.70;;;;;;;13.31;65.39;102665.16;10181268;29;20064;-81
2022/10/06 17:10:38;;;;;;;7.72;1.90;;;;;;;13.14;66.04;102656.66;10180267;29;20056;-82
2022/10/06 17:15:39;;;;;;;9.45;2.67;;;;;;;12.98;66.67;102654.31;10175706;29;20060;-82
2022/10/06 17:20:41;;;;;;;7.68;2.63;;;;;;;12.84;67.18;102656.44;10185440;29;20096;-82
2022/10/06 17:25:43;;;;;;;6.53;2.10;;;;;;;12.69;67.68;102652.38;10180388;29;20056;-82
2022/10/06 17:30:50;;;;;;;6.47;2.20;;;;;;;12.53;68.58;102655.25;10179636;29;20076;-82
2022/10/06 17:35:53;;;;;;;4.80;1.48;;;;;;;12.40;68.85;102655.59;10175546;29;20085;-82
2022/10/06 17:40:56;;;;;;;11.10;1.38;;;;;;;12.23;69.32;102653.19;10177650;29;20063;-83
2022/10/06 17:45:57;;;;;;;7.53;1.58;;;;;;;12.04;69.95;102659.47;10161454;29;20175;-82
2022/10/06 17:51:00;;;;;;;5.45;1.10;;;;;;;11.85;70.66;102657.75;10176698;29;20052;-82
2022/10/06 17:56:06;;;;;;;4.00;1.08;;;;;;;11.68;71.09;102655.31;10176945;29;20131;-82
2022/10/06 18:01:11;;;;;;;13.43;1.67;;;;;;;11.56;71.86;102648.63;10188241;29;20111;-82
2022/10/06 18:06:16;;;;;;;7.03;1.20;;;;;;;11.47;72.56;102651.78;10167840;29;20063;-82
2022/10/06 18:11:40;;;;;;;12.55;1.90;;;;;;;11.41;72.77;102660.28;10179759;29;20523;-81
2022/10/06 18:16:45;;;;;;;2.60;1.20;;;;;;;11.42;73.13;102655.91;10179483;29;20068;-80
2022/10/06 18:21:48;;;;;;;8.23;1.30;;;;;;;11.29;73.52;102665.00;10175700;29;20073;-80
2022/10/06 18:26:53;;;;;;;6.10;1.45;;;;;;;11.27;73.89;102661.38;10194373;29;20048;-81
2022/10/06 18:31:55;;;;;;;9.02;1.55;;;;;;;11.22;74.01;102661.19;10210213;29;20058;-80
2022/10/06 18:37:17;;;;;;;8.35;1.90;;;;;;;11.15;74.45;102666.97;10192060;29;20051;-80
2022/10/06 18:42:19;;;;;;;7.95;1.30;;;;;;;11.10;74.60;102664.16;10208972;29;20047;-81
2022/10/06 18:52:42;;;;;;;7.30;1.60;;;;;;;10.94;75.32;102659.03;10194909;29;20066;-81
2022/10/06 18:57:44;;;;;;;7.63;1.52;;;;;;;10.95;75.60;102651.25;10213933;29;20135;-81
2022/10/06 19:02:50;;;;;;;7.72;1.10;;;;;;;10.96;75.65;102660.03;10198536;29;20059;-81
2022/10/06 19:07:52;;;;;;;6.20;1.60;;;;;;;10.96;75.84;102665.28;10189018;29;20040;-81
2022/10/06 19:12:54;;;;;;;8.00;1.40;;;;;;;10.92;76.06;102668.56;10205477;29;20053;-81
2022/10/06 19:17:56;;;;;;;5.38;1.25;;;;;;;10.87;76.28;102670.06;10204620;29;20513;-81
2022/10/06 19:22:57;;;;;;;7.78;1.20;;;;;;;10.81;76.28;102667.16;10215236;29;20074;-81
2022/10/06 19:28:00;;;;;;;5.60;1.30;;;;;;;10.79;76.74;102665.41;10212268;29;20051;-81
2022/10/06 19:33:01;;;;;;;9.52;1.52;;;;;;;10.77;76.90;102677.50;10211097;29;20046;-81
2022/10/06 19:38:03;;;;;;;7.35;1.33;;;;;;;10.72;76.93;102676.41;10200862;29;20062;-81
2022/10/06 19:43:05;;;;;;;5.05;1.23;;;;;;;10.68;76.91;102678.81;10176872;29;20378;-81
2022/10/06 19:48:09;;;;;;;4.72;1.20;;;;;;;10.59;77.03;102671.41;10208399;29;20060;-81
2022/10/06 19:53:11;;;;;;;9.02;1.23;;;;;;;10.53;77.37;102673.75;10178294;29;20053;-81
2022/10/06 19:58:12;;;;;;;8.23;1.67;;;;;;;10.49;77.59;102661.34;10200329;29;20052;-81
2022/10/06 20:03:14;;;;;;;5.65;1.30;;;;;;;10.40;77.78;102673.19;10190448;29;20105;-81
2022/10/06 20:08:16;;;;;;;11.32;1.67;;;;;;;10.34;77.74;102678.09;10176931;29;20201;-81
2022/10/06 20:13:18;;;;;;;7.60;1.30;;;;;;;10.31;77.86;102677.03;10211040;29;20161;-80
2022/10/06 20:18:20;;;;;;;9.95;2.45;;;;;;;10.22;78.14;102672.22;10164563;29;20126;-81
2022/10/06 20:23:22;;;;;;;7.32;1.55;;;;;;;10.14;78.18;102679.72;10192302;29;20336;-81
2022/10/06 20:28:24;;;;;;;6.78;1.33;;;;;;;10.04;78.40;102672.22;10195882;29;20194;-81
2022/10/06 20:33:26;;;;;;;8.23;1.40;;;;;;;9.97;78.92;102676.28;10188846;29;20059;-81
2022/10/06 20:43:49;;;;;;;7.05;1.63;;;;;;;9.87;79.22;102680.13;10201418;29;20051;-81
2022/10/06 20:48:51;;;;;;;7.07;1.50;;;;;;;9.84;79.35;102668.63;10208329;29;20056;-81
2022/10/06 20:53:53;;;;;;;10.50;1.40;;;;;;;9.69;79.44;102661.78;10204332;29;20047;-81
2022/10/06 20:58:56;;;;;;;9.60;1.45;;;;;;;9.54;79.76;102667.13;10202459;29;20075;-81
2022/10/06 21:03:58;;;;;;;4.43;1.42;;;;;;;9.46;79.87;102659.75;10197709;29;20165;-81
2022/10/06 21:09:00;;;;;;;8.55;2.10;;;;;;;9.36;80.00;102654.00;10189087;29;20069;-81
2022/10/06 21:14:02;;;;;;;5.82;1.65;;;;;;;9.22;80.26;102651.50;10181773;29;20076;-81
2022/10/06 21:19:09;;;;;;;21.08;2.10;;;;;;;9.06;80.51;102652.41;10179219;29;20068;-81
2022/10/06 21:24:10;;;;;;;4.88;1.40;;;;;;;8.94;80.85;102648.31;10197442;29;20052;-81
2022/10/06 21:29:14;;;;;;;7.97;1.25;;;;;;;8.78;81.06;102650.94;10173415;29;20056;-81
2022/10/06 21:34:16;;;;;;;4.90;1.33;;;;;;;8.61;81.23;102643.06;10195375;29;20048;-81
2022/10/06 21:39:17;;;;;;;6.07;1.27;;;;;;;8.51;81.46;102640.75;10204590;29;20056;-81
2022/10/06 21:44:19;;;;;;;5.28;1.40;;;;;;;8.47;81.66;102646.66;10180748;29;20076;-81
2022/10/06 21:49:23;;;;;;;5.47;1.50;;;;;;;8.38;82.29;102643.50;10220656;29;20108;-81
2022/10/06 21:54:25;;;;;;;4.57;1.40;;;;;;;8.32;82.38;102631.88;10202113;29;20524;-81
2022/10/06 21:59:26;;;;;;;9.13;2.08;;;;;;;8.34;82.68;102633.69;10194286;29;20052;-81
2022/10/06 22:04:28;;;;;;;8.90;1.83;;;;;;;8.38;83.13;102625.22;10211483;29;20078;-81
2022/10/06 22:09:29;;;;;;;20.45;1.83;;;;;;;8.32;83.62;102616.22;10206925;29;20048;-82
2022/10/06 22:14:31;;;;;;;6.45;1.48;;;;;;;8.44;83.57;102617.75;10212004;29;20338;-81
2022/10/06 22:19:33;;;;;;;12.07;1.90;;;;;;;8.38;83.69;102615.69;10210808;29;20055;-81
2022/10/06 22:24:34;;;;;;;6.80;1.70;;;;;;;8.34;83.67;102613.69;10214224;29;20060;-81
2022/10/06 22:29:36;;;;;;;6.05;1.98;;;;;;;8.30;83.92;102607.44;10208788;29;20055;-81
2022/10/06 22:34:38;;;;;;;6.70;1.80;;;;;;;8.24;83.96;102599.25;10200601;29;20071;-81
2022/10/06 22:39:40;;;;;;;9.68;2.08;;;;;;;8.19;84.24;102595.47;10198086;29;20058;-81
2022/10/06 22:44:41;;;;;;;5.85;1.38;;;;;;;8.23;84.27;102591.34;10211364;29;20074;-81
2022/10/06 22:49:43;;;;;;;10.10;1.90;;;;;;;8.24;84.69;102588.81;10198879;29;20115;-81
2022/10/06 22:54:45;;;;;;;8.20;2.30;;;;;;;8.28;84.78;102585.53;10205930;29;20072;-81
2022/10/06 22:59:47;;;;;;;15.68;4.07;;;;;;;8.18;84.68;102582.34;10213866;29;20051;-81
2022/10/06 23:04:48;;;;;;;10.32;2.10;;;;;;;8.11;84.54;102571.56;10218551;29;20078;-81
2022/10/06 23:09:50;;;;;;;10.75;1.92;;;;;;;8.19;84.91;102568.50;10213402;29;20048;-81
2022/10/06 23:14:52;;;;;;;9.00;1.90;;;;;;;8.16;85.08;102563.09;10217106;29;20085;-81
2022/10/06 23:19:53;;;;;;;5.15;1.75;;;;;;;8.15;84.98;102562.19;10206641;29;20086;-81
2022/10/06 23:24:55;;;;;;;7.43;1.80;;;;;;;8.18;85.00;102557.16;10208668;29;20044;-81
2022/10/06 23:29:57;;;;;;;11.05;2.30;;;;;;;8.17;85.41;102544.00;10209213;29;20502;-82
2022/10/06 23:34:58;;;;;;;8.82;1.80;;;;;;;8.16;85.41;102550.94;10188355;29;20107;-81
2022/10/06 23:40:00;;;;;;;10.75;2.08;;;;;;;8.17;85.34;102547.53;10213240;29;20084;-81
2022/10/06 23:45:02;;;;;;;10.13;2.22;;;;;;;8.16;85.41;102537.91;10197316;29;20055;-81
2022/10/06 23:50:04;;;;;;;7.82;1.95;;;;;;;8.20;85.64;102537.25;10191308;29;20076;-81
2022/10/06 23:55:06;;;;;;;7.63;2.10;;;;;;;8.25;85.82;102537.50;10206800;29;20118;-81
